Time;durP1;ratioP1;P1;durP2;ratioP2;P2;SDS_P1;SDS_P2;PMS_P1;PMS_P2;Temp;Humidity;BMP_temperature;BMP_pressure;BME280_temperature;BME280_humidity;BME280_pressure;Samples;Min_cycle;Max_cycle;Signal;HPM_P1;HPM_P2
2024/01/25 00:01:54;;;;;;;75.23;51.27;;;5.00;99.90;;;;;;6093946;23;20009;-73
2024/01/25 00:04:20;;;;;;;76.97;51.97;;;5.00;99.90;;;;;;6199939;23;20335;-73
2024/01/25 00:06:46;;;;;;;80.27;55.33;;;5.00;99.90;;;;;;6216900;23;19996;-73
2024/01/25 00:09:12;;;;;;;77.27;51.87;;;5.00;99.90;;;;;;6216799;23;20005;-74
2024/01/25 00:11:38;;;;;;;75.33;51.33;;;5.00;99.90;;;;;;6217126;23;20450;-73
2024/01/25 00:14:04;;;;;;;80.63;53.07;;;5.00;99.90;;;;;;6190079;23;20079;-73
2024/01/25 00:16:30;;;;;;;72.63;51.30;;;5.00;99.90;;;;;;6190157;23;20012;-73
2024/01/25 00:18:56;;;;;;;78.23;53.40;;;5.00;99.90;;;;;;6215912;23;20012;-73
2024/01/25 00:21:22;;;;;;;78.90;54.83;;;5.00;99.90;;;;;;6189857;23;20055;-73
2024/01/25 00:23:47;;;;;;;84.07;55.97;;;5.00;99.90;;;;;;6217152;23;20454;-73
2024/01/25 00:26:13;;;;;;;84.27;56.50;;;5.00;99.90;;;;;;6189723;23;20450;-73
2024/01/25 00:28:39;;;;;;;93.17;60.40;;;5.00;99.90;;;;;;6216526;23;20016;-73
2024/01/25 00:31:05;;;;;;;92.57;63.10;;;5.00;99.90;;;;;;6216376;23;20011;-73
2024/01/25 00:33:30;;;;;;;91.73;61.00;;;5.00;99.90;;;;;;6216790;23;19996;-73
2024/01/25 00:35:56;;;;;;;89.93;61.27;;;5.00;99.90;;;;;;6216476;23;20004;-73
2024/01/25 00:38:22;;;;;;;87.43;60.27;;;5.00;99.90;;;;;;6216644;23;20498;-73
2024/01/25 00:40:48;;;;;;;89.73;60.17;;;5.00;99.90;;;;;;6216529;23;20007;-74
2024/01/25 00:43:14;;;;;;;83.50;55.80;;;5.00;99.90;;;;;;6216475;23;20024;-74
2024/01/25 00:45:40;;;;;;;79.87;55.47;;;5.00;99.90;;;;;;6216663;23;20434;-74
2024/01/25 00:48:07;;;;;;;84.70;56.33;;;5.10;99.90;;;;;;6216524;23;20004;-74
2024/01/25 00:50:33;;;;;;;79.73;53.60;;;5.10;99.90;;;;;;6216476;23;20001;-75
2024/01/25 00:52:59;;;;;;;78.97;52.67;;;5.10;99.90;;;;;;6216599;23;20016;-75
2024/01/25 00:55:25;;;;;;;82.37;55.53;;;5.10;99.90;;;;;;6216394;23;20024;-74
2024/01/25 00:57:51;;;;;;;78.63;53.93;;;5.10;99.90;;;;;;6216346;23;20012;-75
2024/01/25 01:00:18;;;;;;;82.47;54.33;;;5.10;99.90;;;;;;6216704;23;20000;-74
2024/01/25 01:02:44;;;;;;;79.13;54.53;;;5.10;99.90;;;;;;6217003;23;20005;-73
2024/01/25 01:05:12;;;;;;;80.37;56.00;;;5.10;99.90;;;;;;6217063;23;19997;-73
2024/01/25 01:07:42;;;;;;;77.93;55.13;;;5.10;99.90;;;;;;6217254;23;20339;-73
2024/01/25 01:10:09;;;;;;;78.73;54.63;;;5.10;99.90;;;;;;6216737;23;20363;-73
2024/01/25 01:12:36;;;;;;;84.37;56.87;;;5.10;99.90;;;;;;6217173;23;20312;-73
2024/01/25 01:23:01;;;;;;;74.70;51.70;;;5.10;99.90;;;;;;6066928;23;20041;-73
2024/01/25 01:38:58;;;;;;;82.30;52.40;;;5.20;99.90;;;;;;6063553;23;20098;-73
2024/01/25 01:41:27;;;;;;;77.47;53.00;;;5.10;99.90;;;;;;6091182;23;20003;-73
2024/01/25 01:43:53;;;;;;;78.17;54.67;;;5.10;99.90;;;;;;6095087;23;20340;-73
2024/01/25 01:46:36;;;;;;;76.30;52.47;;;5.00;99.90;;;;;;6168142;23;20371;-73
2024/01/25 01:49:12;;;;;;;76.30;51.75;;;5.10;99.90;;;;;;6215991;23;20011;-73
2024/01/25 01:51:42;;;;;;;72.30;51.87;;;5.10;99.90;;;;;;6189479;23;20327;-73
2024/01/25 01:54:09;;;;;;;73.33;50.03;;;5.10;99.90;;;;;;6216050;23;20005;-73
2024/01/25 01:56:35;;;;;;;64.57;46.90;;;5.10;99.90;;;;;;6215682;23;20054;-73
2024/01/25 01:59:08;;;;;;;66.93;46.70;;;5.10;99.90;;;;;;6212840;23;20343;-73
2024/01/25 02:01:34;;;;;;;65.33;46.47;;;5.10;99.90;;;;;;6212493;23;20395;-73
2024/01/25 02:04:00;;;;;;;66.30;47.57;;;5.10;99.90;;;;;;6211314;23;20011;-73
2024/01/25 02:06:26;;;;;;;68.83;48.03;;;5.20;99.90;;;;;;6188834;23;20004;-73
2024/01/25 02:08:58;;;;;;;65.97;46.50;;;5.20;99.90;;;;;;6215803;23;20080;-73
2024/01/25 02:11:25;;;;;;;63.53;43.63;;;5.20;99.90;;;;;;6215374;23;20046;-73
2024/01/25 02:13:51;;;;;;;56.83;39.87;;;5.10;99.90;;;;;;6214983;23;20007;-73
2024/01/25 02:16:17;;;;;;;57.43;41.30;;;5.20;99.90;;;;;;6215582;23;20001;-73
2024/01/25 02:18:43;;;;;;;58.47;40.03;;;5.20;99.90;;;;;;6215554;23;20055;-73
2024/01/25 02:21:09;;;;;;;59.67;41.40;;;5.30;99.90;;;;;;6215358;23;19996;-73
2024/01/25 02:23:35;;;;;;;58.03;42.07;;;5.30;99.90;;;;;;6215606;23;20028;-73
2024/01/25 02:26:01;;;;;;;59.80;42.43;;;5.30;99.90;;;;;;6215497;23;20004;-73
2024/01/25 02:28:27;;;;;;;60.47;42.33;;;5.20;99.90;;;;;;6215230;23;20011;-74
2024/01/25 02:30:53;;;;;;;62.40;43.03;;;5.20;99.90;;;;;;6215426;23;20004;-73
2024/01/25 02:33:19;;;;;;;57.63;41.07;;;5.20;99.90;;;;;;6215233;23;20035;-72
2024/01/25 02:35:44;;;;;;;52.83;40.50;;;5.20;99.90;;;;;;6215036;23;20068;-73
2024/01/25 02:38:10;;;;;;;56.10;40.73;;;5.20;99.90;;;;;;6214917;23;20048;-73
2024/01/25 02:40:36;;;;;;;56.30;39.80;;;5.20;99.90;;;;;;6188939;23;20004;-73
2024/01/25 02:43:02;;;;;;;52.43;39.23;;;5.20;99.90;;;;;;6215284;23;20009;-72
2024/01/25 02:45:28;;;;;;;58.83;39.70;;;5.20;99.90;;;;;;6215325;23;20011;-73
2024/01/25 02:47:54;;;;;;;56.73;39.03;;;5.20;99.90;;;;;;6215872;23;20454;-73
2024/01/25 02:50:20;;;;;;;58.20;40.03;;;5.30;99.90;;;;;;6215780;23;20011;-73
2024/01/25 02:52:46;;;;;;;57.33;38.80;;;5.30;99.90;;;;;;6216175;23;20007;-73
2024/01/25 02:55:12;;;;;;;55.03;40.60;;;5.30;99.90;;;;;;6215770;23;20135;-73
2024/01/25 03:18:33;;;;;;;60.30;41.37;;;5.30;99.90;;;;;;6135070;23;20082;-73
2024/01/25 03:24:48;;;;;;;55.07;36.57;;;5.30;99.90;;;;;;6142304;23;20052;-73
2024/01/25 03:27:14;;;;;;;53.93;37.47;;;5.30;99.90;;;;;;6098892;23;20390;-73
2024/01/25 03:29:43;;;;;;;53.77;36.87;;;5.30;99.90;;;;;;6166130;23;20062;-73
2024/01/25 03:32:12;;;;;;;49.93;36.53;;;5.30;99.90;;;;;;6215280;23;20319;-74
2024/01/25 03:34:38;;;;;;;46.37;32.80;;;5.30;99.90;;;;;;6215394;23;20075;-73
2024/01/25 03:37:04;;;;;;;47.47;32.87;;;5.40;99.90;;;;;;6214995;23;20004;-73
2024/01/25 03:39:30;;;;;;;51.10;33.27;;;5.40;99.90;;;;;;6214983;23;20008;-73
2024/01/25 03:41:56;;;;;;;46.80;33.00;;;5.40;99.90;;;;;;6214739;23;20005;-73
2024/01/25 03:44:22;;;;;;;48.73;35.23;;;5.40;99.90;;;;;;6188361;23;20005;-73
2024/01/25 03:46:47;;;;;;;50.67;37.33;;;5.40;99.90;;;;;;6215131;23;20083;-73
2024/01/25 03:49:13;;;;;;;50.30;36.77;;;5.40;99.90;;;;;;6214792;23;20031;-73
2024/01/25 03:51:39;;;;;;;51.03;37.07;;;5.40;99.90;;;;;;6215171;23;20004;-73
2024/01/25 03:54:05;;;;;;;51.23;37.60;;;5.40;99.90;;;;;;6214737;23;20038;-73
2024/01/25 03:56:30;;;;;;;59.37;41.77;;;5.40;99.90;;;;;;6214084;23;19996;-73
2024/01/25 03:58:56;;;;;;;59.73;43.77;;;5.40;99.90;;;;;;6214618;23;20040;-73
2024/01/25 04:01:22;;;;;;;61.70;43.50;;;5.40;99.90;;;;;;6214728;23;20004;-73
2024/01/25 04:03:48;;;;;;;64.53;45.13;;;5.40;99.90;;;;;;6214706;23;20013;-73
2024/01/25 04:06:14;;;;;;;58.87;44.17;;;5.40;99.90;;;;;;6214922;23;20071;-73
2024/01/25 04:08:39;;;;;;;59.90;43.20;;;5.30;99.90;;;;;;6214947;23;20001;-74
2024/01/25 04:11:05;;;;;;;60.30;44.17;;;5.40;99.90;;;;;;6215021;23;20032;-74
2024/01/25 04:13:31;;;;;;;65.07;45.83;;;5.40;99.90;;;;;;6214601;23;20013;-74
2024/01/25 04:15:56;;;;;;;60.73;44.50;;;5.30;99.90;;;;;;6214860;23;20001;-75
2024/01/25 04:18:22;;;;;;;60.10;44.43;;;5.30;99.90;;;;;;6214610;23;20039;-74
2024/01/25 04:20:50;;;;;;;61.93;45.27;;;5.30;99.90;;;;;;6214705;23;20013;-74
2024/01/25 04:23:16;;;;;;;59.93;44.20;;;5.30;99.90;;;;;;6214825;23;20005;-75
2024/01/25 04:25:42;;;;;;;63.77;45.93;;;5.30;99.90;;;;;;6214297;23;20427;-74
2024/01/25 04:28:08;;;;;;;61.70;47.60;;;5.30;99.90;;;;;;6214654;23;20131;-74
2024/01/25 04:30:34;;;;;;;62.63;45.40;;;5.20;99.90;;;;;;6215379;23;19997;-73
2024/01/25 04:33:00;;;;;;;57.63;44.63;;;5.30;99.90;;;;;;6215336;23;20427;-73
2024/01/25 04:35:26;;;;;;;59.07;43.37;;;5.30;99.90;;;;;;6215651;23;20047;-73
2024/01/25 04:37:52;;;;;;;61.07;42.47;;;5.20;99.90;;;;;;6217130;23;20019;-73
2024/01/25 04:40:19;;;;;;;54.63;41.33;;;5.20;99.90;;;;;;6216974;23;20028;-73
2024/01/25 05:03:56;;;;;;;49.10;35.13;;;5.30;99.90;;;;;;5981778;24;20511;-73
2024/01/25 05:10:01;;;;;;;49.40;35.50;;;5.40;99.90;;;;;;6018369;23;20450;-72
2024/01/25 05:12:27;;;;;;;52.60;37.03;;;5.40;99.90;;;;;;6122629;23;20389;-72
2024/01/25 05:14:53;;;;;;;55.67;39.47;;;5.40;99.90;;;;;;6195030;23;20001;-73
2024/01/25 05:17:19;;;;;;;57.07;41.33;;;5.40;99.90;;;;;;6216034;23;20020;-73
2024/01/25 05:19:45;;;;;;;57.10;41.37;;;5.40;99.90;;;;;;6216155;23;20003;-73
2024/01/25 05:22:10;;;;;;;55.70;41.63;;;5.40;99.90;;;;;;6215985;23;20007;-73
2024/01/25 05:24:36;;;;;;;59.53;42.03;;;5.40;99.90;;;;;;6215978;23;20396;-73
2024/01/25 05:27:02;;;;;;;61.57;41.97;;;5.30;99.90;;;;;;6215895;23;20009;-73
2024/01/25 05:29:28;;;;;;;67.67;43.63;;;5.20;99.90;;;;;;6216114;23;20001;-73
2024/01/25 05:31:53;;;;;;;61.33;43.30;;;5.20;99.90;;;;;;6216155;23;19996;-73
2024/01/25 05:34:19;;;;;;;56.33;41.60;;;5.30;99.90;;;;;;6215603;23;20011;-72
2024/01/25 05:36:45;;;;;;;52.77;40.43;;;5.40;99.90;;;;;;6215060;23;20051;-72
2024/01/25 05:39:12;;;;;;;57.53;41.93;;;5.40;99.90;;;;;;6215230;23;20009;-72
2024/01/25 05:41:39;;;;;;;53.90;39.87;;;5.30;99.90;;;;;;6215611;23;20032;-72
2024/01/25 05:44:05;;;;;;;56.27;38.87;;;5.30;99.90;;;;;;6216240;23;20489;-72
2024/01/25 05:46:30;;;;;;;51.33;36.03;;;5.30;99.90;;;;;;6215772;23;19996;-73
2024/01/25 05:48:56;;;;;;;48.17;34.57;;;5.30;99.90;;;;;;6214722;23;20000;-73
2024/01/25 05:51:22;;;;;;;48.70;37.30;;;5.40;99.90;;;;;;6215560;23;20005;-72
2024/01/25 05:53:48;;;;;;;51.20;36.80;;;5.40;99.90;;;;;;6215698;23;20015;-73
2024/01/25 05:56:14;;;;;;;52.30;36.57;;;5.40;99.90;;;;;;6215333;23;20000;-73
2024/01/25 05:58:39;;;;;;;53.90;39.50;;;5.40;99.90;;;;;;6215405;23;20012;-72
2024/01/25 06:01:07;;;;;;;56.43;40.77;;;5.30;99.90;;;;;;6214397;23;20051;-72
2024/01/25 06:03:33;;;;;;;53.77;38.83;;;5.30;99.90;;;;;;6214550;23;20019;-73
2024/01/25 06:05:58;;;;;;;55.07;38.33;;;5.30;99.90;;;;;;6215610;23;20083;-72
2024/01/25 06:08:24;;;;;;;54.43;39.53;;;5.30;99.90;;;;;;6215396;23;20004;-72
2024/01/25 06:10:50;;;;;;;54.67;41.10;;;5.30;99.90;;;;;;6215334;23;20032;-73
2024/01/25 06:13:16;;;;;;;56.63;41.70;;;5.30;99.90;;;;;;6215612;23;20084;-73
2024/01/25 06:15:42;;;;;;;60.10;43.73;;;5.30;99.90;;;;;;6215993;23;20031;-72
2024/01/25 06:18:07;;;;;;;56.43;42.53;;;5.30;99.90;;;;;;6215299;23;20316;-73
2024/01/25 06:20:33;;;;;;;57.40;42.10;;;5.30;99.90;;;;;;6215862;23;20055;-71
2024/01/25 06:22:59;;;;;;;63.10;44.03;;;5.40;99.90;;;;;;6215815;23;20000;-72
2024/01/25 06:25:30;;;;;;;60.70;43.37;;;5.40;99.90;;;;;;6216291;23;20084;-73
2024/01/25 06:27:57;;;;;;;55.53;41.87;;;5.40;99.90;;;;;;6216086;23;20004;-73
2024/01/25 06:30:23;;;;;;;60.97;40.67;;;5.40;99.90;;;;;;6215958;23;20381;-72
2024/01/25 06:33:09;;;;;;;58.80;41.20;;;5.50;99.90;;;;;;6216510;23;20334;-72
2024/01/25 06:36:16;;;;;;;65.13;42.47;;;5.50;99.90;;;;;;6168673;23;20080;-73
2024/01/25 06:52:48;;;;;;;55.20;39.93;;;5.60;99.90;;;;;;5978675;24;20095;-70
2024/01/25 06:58:27;;;;;;;60.43;41.17;;;5.60;99.90;;;;;;5978746;24;20593;-70
2024/01/25 07:00:56;;;;;;;60.37;40.90;;;5.60;99.90;;;;;;5979855;24;20056;-70
2024/01/25 07:03:22;;;;;;;55.70;40.30;;;5.60;99.90;;;;;;6010503;23;20007;-70
2024/01/25 07:05:48;;;;;;;51.77;36.53;;;5.60;99.90;;;;;;6094123;23;20068;-70
2024/01/25 07:08:14;;;;;;;48.87;36.50;;;5.60;99.90;;;;;;6214719;23;19996;-71
2024/01/25 07:10:40;;;;;;;49.77;35.07;;;5.60;99.90;;;;;;6214965;23;20005;-70
2024/01/25 07:13:06;;;;;;;51.37;37.53;;;5.60;99.90;;;;;;6213984;23;20012;-70
2024/01/25 07:15:32;;;;;;;53.70;39.43;;;5.60;99.90;;;;;;6214430;23;20004;-70
2024/01/25 07:17:58;;;;;;;56.47;41.07;;;5.60;99.90;;;;;;6214325;23;20787;-74
2024/01/25 07:20:24;;;;;;;59.60;40.97;;;5.70;99.90;;;;;;6212717;23;20001;-73
2024/01/25 07:22:49;;;;;;;60.77;43.50;;;5.70;99.90;;;;;;6211934;23;20015;-73
2024/01/25 07:25:15;;;;;;;60.10;43.33;;;5.70;99.90;;;;;;6211489;23;20001;-73
2024/01/25 07:27:45;;;;;;;61.93;43.73;;;5.70;99.90;;;;;;6213382;23;20692;-73
2024/01/25 07:30:12;;;;;;;56.17;42.10;;;5.70;99.90;;;;;;6214121;23;20001;-71
2024/01/25 07:32:39;;;;;;;55.20;40.13;;;5.70;99.90;;;;;;6187856;23;20386;-73
2024/01/25 07:35:05;;;;;;;62.80;41.00;;;5.80;99.90;;;;;;6211957;23;20348;-70
2024/01/25 07:37:32;;;;;;;59.87;41.23;;;5.80;99.90;;;;;;6189588;23;20474;-70
2024/01/25 07:39:58;;;;;;;54.03;40.80;;;5.80;99.90;;;;;;6183575;23;20005;-69
2024/01/25 07:42:24;;;;;;;51.70;39.00;;;5.80;99.90;;;;;;6156396;23;20353;-69
2024/01/25 07:44:52;;;;;;;49.43;35.60;;;5.80;99.90;;;;;;6184132;23;20021;-70
2024/01/25 07:47:19;;;;;;;48.63;36.33;;;5.80;99.90;;;;;;6184135;23;20427;-70
2024/01/25 07:49:45;;;;;;;51.53;37.37;;;5.90;99.90;;;;;;6184759;23;20059;-70
2024/01/25 07:52:13;;;;;;;56.40;36.23;;;5.90;99.90;;;;;;6184099;23;20036;-71
2024/01/25 07:54:44;;;;;;;50.40;35.43;;;5.90;99.90;;;;;;6182671;23;20431;-70
2024/01/25 07:57:11;;;;;;;60.57;37.50;;;6.00;99.90;;;;;;6184691;23;19993;-70
2024/01/25 07:59:58;;;;;;;60.50;36.30;;;6.00;99.90;;;;;;6184090;23;20362;-70
2024/01/25 08:02:23;;;;;;;46.20;35.57;;;6.00;99.90;;;;;;6183873;23;20009;-71
2024/01/25 08:04:50;;;;;;;48.90;37.63;;;6.00;99.90;;;;;;6158028;23;20443;-71
2024/01/25 08:07:16;;;;;;;49.63;37.47;;;6.00;99.90;;;;;;6184945;23;20001;-71
2024/01/25 08:09:42;;;;;;;56.53;39.47;;;6.00;99.90;;;;;;6183399;23;20064;-71
2024/01/25 08:12:12;;;;;;;59.47;44.23;;;6.10;99.90;;;;;;6184508;23;20322;-71
2024/01/25 08:15:22;;;;;;;60.43;45.33;;;6.10;99.90;;;;;;6186718;23;20004;-71
2024/01/25 08:20:44;;;;;;;67.50;44.87;;;6.20;99.90;;;;;;6022209;23;20390;-73
2024/01/25 08:23:10;;;;;;;62.57;45.77;;;6.20;99.90;;;;;;6246411;23;20018;-72
2024/01/25 08:25:36;;;;;;;62.80;44.10;;;6.20;99.90;;;;;;6246068;23;20087;-71
2024/01/25 08:28:02;;;;;;;59.13;43.10;;;6.30;99.90;;;;;;6246293;23;20426;-71
2024/01/25 08:30:27;;;;;;;60.93;44.67;;;6.30;99.90;;;;;;6246205;23;20007;-71
2024/01/25 08:32:53;;;;;;;69.10;48.20;;;6.40;99.90;;;;;;6244965;23;20010;-72
2024/01/25 08:35:19;;;;;;;64.03;47.47;;;6.40;99.90;;;;;;6245015;23;20035;-71
2024/01/25 08:37:45;;;;;;;69.93;47.87;;;6.40;99.90;;;;;;6243802;23;20016;-72
2024/01/25 08:40:11;;;;;;;62.87;44.83;;;6.40;99.90;;;;;;6244985;23;20004;-72
2024/01/25 08:42:37;;;;;;;58.87;45.27;;;6.50;99.90;;;;;;6242877;23;20438;-72
2024/01/25 08:45:04;;;;;;;61.57;44.20;;;6.50;99.90;;;;;;6245565;23;20100;-72
2024/01/25 08:47:31;;;;;;;64.23;46.20;;;6.50;99.90;;;;;;6246104;23;20383;-72
2024/01/25 08:49:57;;;;;;;64.20;45.43;;;6.50;99.90;;;;;;6245643;23;20027;-72
2024/01/25 08:52:24;;;;;;;59.17;44.87;;;6.60;99.90;;;;;;6246275;23;20003;-71
2024/01/25 08:54:49;;;;;;;55.60;41.77;;;6.60;99.90;;;;;;6246563;23;20070;-71
2024/01/25 08:57:16;;;;;;;53.37;39.87;;;6.60;99.90;;;;;;6246439;23;19996;-73
2024/01/25 08:59:42;;;;;;;63.83;42.70;;;6.60;99.90;;;;;;6246111;23;20012;-70
2024/01/25 09:02:08;;;;;;;60.30;44.03;;;6.70;99.90;;;;;;6246210;23;20000;-73
2024/01/25 09:04:34;;;;;;;54.60;42.10;;;6.80;99.90;;;;;;6245776;23;20012;-70
2024/01/25 09:07:00;;;;;;;57.47;41.87;;;6.80;99.90;;;;;;6244969;23;20054;-74
2024/01/25 09:09:26;;;;;;;51.13;40.17;;;6.80;99.90;;;;;;6245734;23;20075;-74
2024/01/25 09:11:51;;;;;;;55.43;40.20;;;6.80;99.90;;;;;;6245935;23;20000;-75
2024/01/25 09:14:17;;;;;;;59.97;39.03;;;6.90;99.90;;;;;;6244293;23;20066;-74
2024/01/25 09:16:43;;;;;;;51.93;37.50;;;6.90;99.90;;;;;;6243013;23;20062;-75
2024/01/25 09:19:08;;;;;;;47.23;36.20;;;6.90;99.90;;;;;;6244179;23;20487;-74
2024/01/25 09:21:34;;;;;;;49.83;35.90;;;7.00;99.90;;;;;;6216808;23;20058;-73
2024/01/25 09:24:00;;;;;;;45.50;34.87;;;7.00;99.90;;;;;;6243677;23;20004;-74
2024/01/25 09:26:27;;;;;;;50.20;35.70;;;7.10;99.90;;;;;;6216935;23;20385;-74
2024/01/25 09:28:52;;;;;;;46.67;33.90;;;7.10;99.90;;;;;;6245608;23;20456;-74
2024/01/25 09:31:18;;;;;;;45.23;33.70;;;7.20;99.90;;;;;;6245842;23;19997;-74
2024/01/25 09:33:44;;;;;;;45.60;33.67;;;7.20;99.90;;;;;;6246038;23;20004;-74
2024/01/25 09:36:09;;;;;;;43.93;32.70;;;7.20;99.90;;;;;;6245601;23;20003;-74
2024/01/25 09:38:35;;;;;;;48.20;35.50;;;7.30;99.90;;;;;;6245464;23;20039;-74
2024/01/25 09:41:01;;;;;;;63.40;44.77;;;7.30;99.90;;;;;;6245581;23;20075;-74
2024/01/25 09:43:27;;;;;;;62.40;43.10;;;7.30;99.90;;;;;;6246066;23;20369;-74
2024/01/25 09:45:56;;;;;;;45.23;35.73;;;7.40;99.90;;;;;;6246379;23;20371;-74
2024/01/25 09:48:23;;;;;;;49.17;35.43;;;7.40;99.90;;;;;;6246264;23;20071;-74
2024/01/25 09:50:48;;;;;;;45.00;32.20;;;7.50;99.90;;;;;;6246607;23;20319;-73
2024/01/25 09:53:24;;;;;;;41.73;32.10;;;7.60;99.90;;;;;;6246473;23;20000;-74
2024/01/25 09:56:07;;;;;;;43.10;31.10;;;7.70;99.90;;;;;;6246574;23;20000;-75
2024/01/25 09:58:41;;;;;;;44.30;30.53;;;7.70;99.90;;;;;;6219415;23;20146;-74
2024/01/25 10:01:17;;;;;;;37.03;29.27;;;7.80;99.90;;;;;;6245721;23;20046;-75
2024/01/25 10:03:44;;;;;;;36.33;25.13;;;7.90;99.90;;;;;;6219372;23;20014;-74
2024/01/25 10:06:11;;;;;;;32.37;23.47;;;7.90;99.90;;;;;;6246354;23;20079;-75
2024/01/25 10:08:37;;;;;;;31.33;24.10;;;8.00;99.90;;;;;;6246192;23;20004;-75
2024/01/25 10:11:04;;;;;;;36.07;25.57;;;8.00;99.90;;;;;;6245988;23;20007;-74
2024/01/25 10:13:30;;;;;;;34.57;25.60;;;8.10;99.90;;;;;;6246417;23;20000;-74
2024/01/25 10:15:56;;;;;;;37.77;25.37;;;8.10;99.90;;;;;;6246262;23;20000;-75
2024/01/25 10:18:23;;;;;;;34.77;24.77;;;8.20;99.90;;;;;;6245841;23;20012;-75
2024/01/25 10:20:49;;;;;;;29.80;22.13;;;8.20;99.90;;;;;;6245520;23;20012;-75
2024/01/25 10:23:15;;;;;;;25.17;18.10;;;8.30;99.90;;;;;;6244904;23;20046;-74
2024/01/25 10:25:41;;;;;;;21.60;16.13;;;8.30;99.90;;;;;;6245346;23;20485;-74
2024/01/25 10:28:07;;;;;;;21.53;13.00;;;8.40;99.90;;;;;;6244989;23;20035;-73
2024/01/25 10:30:36;;;;;;;16.57;11.00;;;8.40;99.90;;;;;;6245053;23;20000;-74
2024/01/25 10:33:02;;;;;;;30.17;22.67;;;8.50;99.90;;;;;;6217807;23;20007;-74
2024/01/25 10:35:28;;;;;;;34.20;24.67;;;8.60;99.90;;;;;;6242103;23;20007;-74
2024/01/25 10:37:55;;;;;;;35.80;24.07;;;8.70;99.90;;;;;;6217550;23;20162;-74
2024/01/25 10:40:21;;;;;;;32.47;22.40;;;8.70;99.90;;;;;;6244513;23;20000;-74
2024/01/25 10:42:48;;;;;;;27.87;20.17;;;8.80;99.90;;;;;;6245092;23;20007;-75
2024/01/25 10:45:14;;;;;;;28.43;21.53;;;8.90;99.90;;;;;;6244583;23;20032;-74
2024/01/25 10:47:41;;;;;;;26.87;20.33;;;8.90;99.90;;;;;;6244963;23;20006;-74
2024/01/25 10:50:11;;;;;;;27.00;19.37;;;9.00;99.90;;;;;;6244514;23;20421;-74
2024/01/25 10:52:38;;;;;;;24.43;18.50;;;9.00;99.90;;;;;;6243906;23;20083;-74
2024/01/25 10:55:07;;;;;;;28.17;20.43;;;9.10;99.90;;;;;;6244129;23;20500;-74
2024/01/25 10:57:43;;;;;;;22.23;16.67;;;9.10;99.90;;;;;;6244433;23;20008;-74
2024/01/25 11:00:17;;;;;;;16.07;11.73;;;9.10;99.90;;;;;;6244753;23;20004;-75
2024/01/25 11:02:46;;;;;;;14.03;10.70;;;9.20;99.90;;;;;;6244411;23;20024;-73
2024/01/25 11:05:17;;;;;;;19.90;12.87;;;9.20;99.90;;;;;;6243804;23;20111;-74
2024/01/25 11:07:47;;;;;;;20.40;12.77;;;9.30;99.90;;;;;;6244384;23;20365;-74
2024/01/25 11:10:17;;;;;;;17.63;13.47;;;9.40;99.90;;;;;;6244115;23;20057;-75
2024/01/25 11:12:56;;;;;;;18.13;12.37;;;;;;;;;;6243909;23;20007;-75
2024/01/25 11:15:23;;;;;;;24.23;13.37;;;;;;;;;;6244091;23;20015;-74
2024/01/25 11:17:56;;;;;;;23.90;16.67;;;;;;;;;;6216819;23;20344;-74
2024/01/25 11:20:23;;;;;;;21.75;17.38;;;;;;;;;;6243547;23;20054;-75
2024/01/25 11:22:55;;;;;;;29.53;19.37;;;;;;;;;;6240843;23;20019;-73
2024/01/25 11:25:21;;;;;;;33.33;20.43;;;;;;;;;;6241616;23;20027;-70
2024/01/25 11:27:49;;;;;;;27.30;19.13;;;;;;;;;;6215824;23;20031;-72
2024/01/25 11:30:16;;;;;;;44.80;20.57;;;;;;;;;;6217224;23;20018;-77
2024/01/25 11:32:42;;;;;;;31.83;20.30;;;;;;;;;;6244596;23;20016;-71
2024/01/25 11:35:11;;;;;;;24.97;19.80;;;;;;;;;;6244377;23;20004;-72
2024/01/25 11:37:37;;;;;;;31.20;17.80;;;;;;;;;;6244199;23;20422;-71
2024/01/25 11:40:03;;;;;;;32.72;18.80;;;;;;;;;;6244866;23;20004;-70
2024/01/25 11:42:30;;;;;;;34.33;17.98;;;;;;;;;;6244911;23;20000;-76
2024/01/25 11:44:56;;;;;;;31.77;16.63;;;;;;;;;;6244160;23;20023;-71
2024/01/25 11:47:23;;;;;;;22.92;15.80;;;;;;;;;;6244986;23;20028;-74
2024/01/25 11:49:49;;;;;;;42.85;17.30;;;;;;;;;;6242827;23;20080;-74
2024/01/25 11:52:15;;;;;;;34.90;16.17;;;;;;;;;;6241260;23;20008;-75
2024/01/25 11:54:41;;;;;;;31.38;14.85;;;;;;;;;;6241441;23;20007;-74
2024/01/25 11:57:08;;;;;;;40.17;15.00;;;;;;;;;;6244678;23;20004;-75
2024/01/25 11:59:34;;;;;;;30.90;15.43;;;;;;;;;;6243648;23;20016;-75
2024/01/25 12:02:00;;;;;;;21.67;14.80;;;;;;;;;;6245110;23;20000;-75
2024/01/25 12:04:27;;;;;;;23.23;13.68;;;;;;;;;;6244761;23;20464;-74
2024/01/25 12:06:53;;;;;;;18.27;12.80;;;;;;;;;;6245371;23;20071;-75
2024/01/25 12:09:19;;;;;;;24.10;13.30;;;;;;;;;;6245217;23;20404;-75
2024/01/25 12:11:50;;;;;;;16.92;11.40;;;;;;;;;;6245011;23;20024;-74
2024/01/25 12:14:17;;;;;;;14.82;9.48;;;;;;;;;;6245252;23;20011;-74
2024/01/25 12:16:43;;;;;;;13.60;8.57;;;;;;;;;;6245219;23;19996;-75
2024/01/25 12:19:09;;;;;;;11.50;8.95;;;;;;;;;;6245059;23;20008;-74
2024/01/25 12:21:36;;;;;;;13.90;7.45;;;;;;;;;;6245197;23;20012;-74
2024/01/25 12:24:02;;;;;;;10.57;7.47;;;;;;;;;;6244733;23;20026;-75
2024/01/25 12:26:28;;;;;;;9.60;7.05;;;;;;;;;;6245032;23;20024;-74
2024/01/25 12:28:55;;;;;;;10.95;7.13;;;;;;;;;;6245084;23;20431;-74
2024/01/25 12:31:21;;;;;;;11.60;7.38;;;;;;;;;;6245047;23;20000;-74
2024/01/25 12:33:47;;;;;;;12.73;8.00;;;;;;;;;;6245224;23;20008;-75
2024/01/25 12:36:13;;;;;;;17.30;9.80;;;;;;;;;;6244845;23;20322;-75
2024/01/25 12:38:39;;;;;;;14.52;9.70;;;;;;;;;;6244809;23;20019;-74
2024/01/25 12:41:05;;;;;;;17.67;9.50;;;;;;;;;;6244791;23;20004;-74
2024/01/25 12:43:31;;;;;;;20.27;10.98;;;;;;;;;;6245119;23;20019;-74
2024/01/25 12:45:57;;;;;;;17.67;10.68;;;;;;;;;;6244956;23;20000;-73
2024/01/25 12:48:23;;;;;;;15.93;9.75;;;;;;;;;;6244905;23;20008;-74
2024/01/25 12:50:50;;;;;;;19.25;10.95;;;;;;;;;;6218008;23;20001;-74
2024/01/25 12:53:16;;;;;;;13.68;10.68;;;;;;;;;;6244801;23;20104;-75
2024/01/25 12:55:42;;;;;;;16.15;11.07;;;;;;;;;;6244499;23;20104;-75
2024/01/25 12:58:08;;;;;;;12.50;9.18;;;;;;;;;;6245741;23;20492;-73
2024/01/25 13:00:34;;;;;;;11.38;8.45;;;;;;;;;;6245848;23;20001;-73
2024/01/25 13:03:03;;;;;;;12.55;8.82;;;;;;;;;;6245580;23;20134;-74
2024/01/25 13:05:33;;;;;;;18.30;9.10;;;;;;;;;;6245983;23;20082;-73
2024/01/25 13:08:00;;;;;;;13.82;8.25;;;;;;;;;;6245663;23;20004;-76
2024/01/25 13:10:26;;;;;;;12.10;7.95;;;;;;;;;;6246112;23;20000;-74
2024/01/25 13:12:52;;;;;;;12.43;8.70;;;;;;;;;;6246040;23;20442;-72
2024/01/25 13:15:19;;;;;;;19.27;11.05;;;;;;;;;;6218962;23;20062;-73
2024/01/25 13:17:45;;;;;;;16.20;11.77;;;;;;;;;;6245923;23;20383;-73
2024/01/25 13:20:11;;;;;;;15.48;10.95;;;;;;;;;;6245522;23;20057;-74
2024/01/25 13:22:37;;;;;;;15.95;11.23;;;;;;;;;;6243862;23;20016;-74
2024/01/25 13:25:05;;;;;;;11.13;9.10;;;;;;;;;;6245926;23;20075;-74
2024/01/25 13:27:31;;;;;;;15.70;9.57;;;;;;;;;;6246162;23;20012;-74
2024/01/25 13:29:57;;;;;;;17.48;9.52;;;;;;;;;;6246111;23;20000;-79
2024/01/25 13:32:24;;;;;;;14.05;9.45;;;;;;;;;;6245713;23;20429;-78
2024/01/25 13:34:50;;;;;;;13.80;9.65;;;;;;;;;;6246040;23;20031;-77
2024/01/25 13:37:16;;;;;;;14.60;9.60;;;;;;;;;;6245931;23;20000;-78
2024/01/25 13:39:42;;;;;;;13.25;10.00;;;;;;;;;;6245888;23;20012;-78
2024/01/25 13:42:09;;;;;;;14.18;9.68;;;;;;;;;;6246030;23;20046;-79
2024/01/25 13:44:35;;;;;;;11.80;7.70;;;;;;;;;;6246283;23;20356;-75
2024/01/25 13:47:01;;;;;;;12.85;9.45;;;;;;;;;;6219194;23;20039;-74
2024/01/25 13:49:27;;;;;;;14.45;9.48;;;;;;;;;;6246051;23;20000;-76
2024/01/25 13:51:54;;;;;;;11.93;8.60;;;;;;;;;;6245982;23;20003;-75
2024/01/25 13:54:20;;;;;;;18.50;13.02;;;;;;;;;;6245809;23;20483;-76
2024/01/25 13:56:46;;;;;;;16.67;11.98;;;;;;;;;;6245984;23;20375;-74
2024/01/25 13:59:12;;;;;;;17.70;11.82;;;;;;;;;;6246082;23;20012;-74
2024/01/25 14:01:38;;;;;;;15.70;11.38;;;;;;;;;;6246038;23;20006;-74
2024/01/25 14:04:05;;;;;;;17.45;13.13;;;;;;;;;;6246236;23;20004;-74
2024/01/25 14:06:31;;;;;;;15.20;11.13;;;;;;;;;;6246331;23;20071;-74
2024/01/25 14:08:57;;;;;;;12.95;10.10;;;;;;;;;;6246029;23;20437;-75
2024/01/25 14:11:23;;;;;;;14.65;9.80;;;;;;;;;;6245570;23;20003;-75
2024/01/25 14:13:49;;;;;;;19.02;13.30;;;;;;;;;;6245988;23;20061;-74
2024/01/25 14:16:16;;;;;;;43.22;29.40;;;;;;;;;;6245971;23;20003;-74
2024/01/25 14:18:43;;;;;;;19.80;15.30;;;;;;;;;;6245334;23;20058;-75
2024/01/25 14:21:09;;;;;;;18.45;11.57;;;;;;;;;;6245326;23;20008;-75
2024/01/25 14:23:35;;;;;;;14.70;10.52;;;;;;;;;;6245699;23;20004;-74
2024/01/25 14:26:01;;;;;;;15.07;10.30;;;;;;;;;;6246052;23;20426;-76
2024/01/25 14:28:27;;;;;;;16.00;10.13;;;;;;;;;;6245821;23;20008;-74
2024/01/25 14:30:53;;;;;;;11.75;7.82;;;;;;;;;;6245694;23;20001;-75
2024/01/25 14:33:19;;;;;;;13.80;9.25;;;;;;;;;;6245722;23;20004;-74